Time;durP1;ratioP1;P1;durP2;ratioP2;P2;SDS_P1;SDS_P2;PMS_P1;PMS_P2;Temp;Humidity;BMP_temperature;BMP_pressure;BME280_temperature;BME280_humidity;BME280_pressure;Samples;Min_cycle;Max_cycle;Signal;HPM_P1;HPM_P2
2023/03/23 00:01:24;;;;;;;2.28;1.88;;;14.10;78.80;;;;;;4868770;29;20040;-86
2023/03/23 00:03:52;;;;;;;3.28;2.30;;;14.10;78.90;;;;;;4902675;29;20107;-87
2023/03/23 00:06:21;;;;;;;2.85;2.05;;;14.10;78.80;;;;;;4902530;29;20068;-87
2023/03/23 00:08:56;;;;;;;2.15;1.80;;;14.10;78.80;;;;;;4884591;29;20036;-88
2023/03/23 00:11:26;;;;;;;3.55;2.10;;;14.10;78.80;;;;;;4887404;29;20108;-87
2023/03/23 00:13:53;;;;;;;2.75;1.90;;;14.10;78.80;;;;;;4868775;29;20044;-87
2023/03/23 00:16:30;;;;;;;3.55;2.00;;;14.10;78.80;;;;;;4891805;29;20024;-88
2023/03/23 00:19:01;;;;;;;2.78;2.00;;;14.10;78.90;;;;;;4881050;29;20111;-88
2023/03/23 00:21:34;;;;;;;3.05;1.92;;;14.10;78.80;;;;;;4875079;29;20028;-88
2023/03/23 00:24:09;;;;;;;2.47;1.92;;;14.10;78.80;;;;;;4887916;29;20032;-87
2023/03/23 00:26:42;;;;;;;;;;;14.10;78.90;;;;;;4888049;29;20029;-87
2023/03/23 00:29:21;;;;;;;2.22;1.50;;;14.10;78.80;;;;;;4892777;29;20361;-87
2023/03/23 00:31:50;;;;;;;2.58;1.80;;;14.10;78.80;;;;;;4885190;29;20028;-87
2023/03/23 00:34:19;;;;;;;2.15;1.80;;;14.10;78.80;;;;;;4853931;29;20047;-85
2023/03/23 00:36:57;;;;;;;3.28;2.30;;;14.00;78.80;;;;;;4897954;29;20068;-86
2023/03/23 00:39:25;;;;;;;3.15;2.13;;;14.10;78.90;;;;;;4886749;29;20029;-87
2023/03/23 00:41:51;;;;;;;2.63;1.90;;;14.00;78.80;;;;;;4872453;29;20469;-88
2023/03/23 00:44:18;;;;;;;3.25;2.42;;;14.00;79.40;;;;;;4901496;29;20024;-85
2023/03/23 00:46:45;;;;;;;2.55;2.25;;;14.00;78.80;;;;;;4882683;29;20047;-87
2023/03/23 00:49:17;;;;;;;3.60;2.00;;;14.00;78.80;;;;;;4881272;29;20041;-88
2023/03/23 00:51:46;;;;;;;3.50;2.40;;;14.00;78.80;;;;;;4886085;29;20049;-85
2023/03/23 00:54:15;;;;;;;2.50;2.00;;;14.10;78.90;;;;;;4899514;29;20043;-87
2023/03/23 00:56:40;;;;;;;2.72;1.90;;;14.00;78.80;;;;;;4882253;29;20446;-87
2023/03/23 00:59:08;;;;;;;2.60;2.10;;;14.00;78.80;;;;;;4893560;29;20080;-87
2023/03/23 01:01:35;;;;;;;2.50;2.10;;;14.00;78.80;;;;;;4869046;29;20462;-88
2023/03/23 01:04:03;;;;;;;2.63;2.08;;;14.10;78.90;;;;;;4881857;29;20040;-87
2023/03/23 01:06:41;;;;;;;2.72;1.83;;;14.00;78.80;;;;;;4897619;29;20033;-87
2023/03/23 01:09:10;;;;;;;2.35;1.90;;;14.00;78.80;;;;;;4881996;29;20051;-88
2023/03/23 01:11:37;;;;;;;2.00;1.80;;;14.00;78.80;;;;;;4880622;29;20116;-87
2023/03/23 01:14:05;;;;;;;2.45;2.10;;;14.00;78.80;;;;;;4887516;29;20123;-86
2023/03/23 01:16:30;;;;;;;2.47;1.90;;;14.00;78.80;;;;;;4880711;29;20036;-87
2023/03/23 01:18:56;;;;;;;2.38;1.85;;;14.00;78.80;;;;;;4870491;29;20386;-87
2023/03/23 01:21:24;;;;;;;2.42;1.90;;;14.00;78.80;;;;;;4851931;29;20593;-87
2023/03/23 01:23:50;;;;;;;3.92;2.28;;;14.00;78.80;;;;;;4877132;29;20084;-87
2023/03/23 01:26:20;;;;;;;3.10;2.30;;;14.10;78.90;;;;;;4880795;29;20028;-86
2023/03/23 01:28:46;;;;;;;2.75;1.90;;;14.00;78.90;;;;;;4890561;29;20044;-87
2023/03/23 01:31:16;;;;;;;2.45;2.05;;;14.00;78.80;;;;;;4883351;29;20021;-86
2023/03/23 01:33:44;;;;;;;2.85;1.90;;;14.00;78.80;;;;;;4869977;29;20042;-86
2023/03/23 01:36:16;;;;;;;3.08;1.83;;;14.00;78.80;;;;;;4887030;29;20037;-86
2023/03/23 01:38:45;;;;;;;3.92;2.10;;;14.00;78.80;;;;;;4863654;29;20032;-86
2023/03/23 01:41:12;;;;;;;2.53;2.00;;;14.00;78.80;;;;;;4899024;29;20021;-86
2023/03/23 01:44:03;;;;;;;2.42;1.95;;;14.00;78.90;;;;;;4866169;29;20067;-88
2023/03/23 01:46:38;;;;;;;2.85;2.17;;;14.00;78.90;;;;;;4885015;29;20036;-87
2023/03/23 01:49:27;;;;;;;3.00;1.90;;;14.00;78.80;;;;;;4852129;29;20127;-87
2023/03/23 01:51:57;;;;;;;2.50;1.90;;;14.00;78.90;;;;;;4881711;29;20016;-86
2023/03/23 01:54:24;;;;;;;2.80;2.08;;;14.00;78.90;;;;;;4882284;29;20052;-86
2023/03/23 01:56:58;;;;;;;3.42;2.22;;;14.00;78.90;;;;;;4867767;29;20033;-88
2023/03/23 01:59:26;;;;;;;2.75;2.20;;;14.00;78.80;;;;;;4879912;29;20033;-87
2023/03/23 02:02:12;;;;;;;2.90;2.00;;;14.00;78.80;;;;;;4873833;29;20033;-87
2023/03/23 02:04:41;;;;;;;2.28;1.77;;;14.00;78.80;;;;;;4863746;29;20039;-88
2023/03/23 02:07:07;;;;;;;2.50;2.05;;;14.00;78.80;;;;;;4887274;29;20044;-89
2023/03/23 02:09:34;;;;;;;2.28;1.67;;;14.00;78.80;;;;;;4880189;29;20036;-87
2023/03/23 02:12:00;;;;;;;2.60;2.17;;;14.00;78.80;;;;;;4883759;29;20032;-87
2023/03/23 02:14:28;;;;;;;2.15;1.88;;;14.00;78.80;;;;;;4858226;29;20056;-89
2023/03/23 02:16:59;;;;;;;2.13;1.88;;;14.00;78.90;;;;;;4884038;29;20033;-87
2023/03/23 02:19:44;;;;;;;2.10;1.80;;;14.00;78.90;;;;;;4876757;29;20611;-87
2023/03/23 02:22:43;;;;;;;2.22;1.90;;;14.00;78.90;;;;;;4881617;29;20080;-87
2023/03/23 02:25:27;;;;;;;2.28;1.88;;;14.00;78.90;;;;;;4883120;29;20424;-87
2023/03/23 02:28:26;;;;;;;2.17;1.97;;;14.00;78.80;;;;;;4880839;29;20043;-87
2023/03/23 02:30:55;;;;;;;2.65;2.08;;;13.90;79.40;;;;;;4887246;29;20488;-87
2023/03/23 02:33:39;;;;;;;2.60;1.90;;;14.00;78.80;;;;;;4889359;29;20024;-88
2023/03/23 02:36:31;;;;;;;2.60;2.20;;;13.90;78.80;;;;;;4886557;29;20481;-87
2023/03/23 02:39:12;;;;;;;2.00;1.70;;;14.00;78.80;;;;;;4893097;29;20478;-87
2023/03/23 02:41:58;;;;;;;3.25;2.10;;;14.00;78.90;;;;;;4883236;29;20037;-87
2023/03/23 02:44:29;;;;;;;1.98;1.75;;;14.00;79.00;;;;;;4904880;29;20049;-88
2023/03/23 02:46:58;;;;;;;2.55;2.03;;;14.00;78.90;;;;;;4902184;29;20029;-89
2023/03/23 02:49:26;;;;;;;1.95;1.73;;;14.00;78.90;;;;;;4910137;29;20040;-87
2023/03/23 02:51:56;;;;;;;2.80;1.88;;;14.00;78.90;;;;;;4870422;29;20071;-89
2023/03/23 02:54:25;;;;;;;2.40;1.83;;;14.00;78.90;;;;;;4901252;29;20032;-88
2023/03/23 02:56:54;;;;;;;2.22;1.80;;;14.00;78.90;;;;;;4864713;29;20024;-88
2023/03/23 02:59:25;;;;;;;3.47;2.45;;;14.00;78.90;;;;;;4895482;29;20021;-87
2023/03/23 03:02:18;;;;;;;2.30;1.88;;;14.00;78.90;;;;;;4877714;29;20052;-87
2023/03/23 03:04:54;;;;;;;2.75;2.08;;;13.90;78.90;;;;;;4883096;29;20461;-88
2023/03/23 03:07:35;;;;;;;3.50;2.17;;;14.00;78.90;;;;;;4867906;29;20117;-88
2023/03/23 03:10:11;;;;;;;3.80;2.20;;;14.00;78.90;;;;;;4901908;29;20032;-88
2023/03/23 03:12:52;;;;;;;3.60;2.20;;;14.00;78.90;;;;;;4882385;29;20525;-88
2023/03/23 03:15:33;;;;;;;2.78;2.25;;;14.00;78.90;;;;;;4895030;29;20092;-87
2023/03/23 03:18:11;;;;;;;2.95;2.28;;;14.00;78.90;;;;;;4881392;29;20079;-88
2023/03/23 03:20:44;;;;;;;4.25;2.30;;;14.00;78.90;;;;;;4864727;29;20035;-88
2023/03/23 03:23:12;;;;;;;3.33;2.15;;;13.90;78.80;;;;;;4882174;29;20493;-87
2023/03/23 03:25:47;;;;;;;2.90;2.33;;;14.00;78.90;;;;;;4884796;29;20052;-82
2023/03/23 03:28:17;;;;;;;2.83;2.00;;;14.00;78.90;;;;;;4900516;29;20040;-82
2023/03/23 03:30:46;;;;;;;2.55;2.20;;;14.00;78.90;;;;;;4900649;29;20091;-82
2023/03/23 03:33:12;;;;;;;2.80;2.08;;;14.00;78.90;;;;;;4869721;29;20481;-84
2023/03/23 03:35:41;;;;;;;3.00;2.05;;;14.00;78.90;;;;;;4900138;29;20043;-82
2023/03/23 03:38:10;;;;;;;3.35;2.20;;;14.00;78.90;;;;;;4900530;29;20036;-82
2023/03/23 03:40:35;;;;;;;3.38;2.17;;;14.00;78.90;;;;;;4900296;29;20033;-82
2023/03/23 03:43:02;;;;;;;2.47;2.15;;;14.00;78.90;;;;;;4885259;29;20051;-82
2023/03/23 03:45:28;;;;;;;2.50;2.00;;;14.00;78.90;;;;;;4899940;29;20048;-82
2023/03/23 03:47:55;;;;;;;3.67;2.35;;;14.00;78.90;;;;;;4869848;29;20070;-82
2023/03/23 03:50:21;;;;;;;2.92;2.17;;;14.00;78.90;;;;;;4900274;29;20486;-81
2023/03/23 03:52:47;;;;;;;3.80;2.28;;;14.00;78.90;;;;;;4899815;29;20059;-83
2023/03/23 03:55:13;;;;;;;2.67;2.13;;;14.00;78.80;;;;;;4854056;29;20080;-83
2023/03/23 03:57:43;;;;;;;2.65;2.10;;;14.00;78.90;;;;;;4884892;29;20039;-82
2023/03/23 04:00:48;;;;;;;3.47;2.03;;;14.00;78.80;;;;;;4908718;29;20072;-82
2023/03/23 04:03:18;;;;;;;2.60;2.10;;;14.00;78.80;;;;;;4888746;29;20059;-82
2023/03/23 04:06:00;;;;;;;3.45;2.47;;;14.00;78.80;;;;;;4905956;29;20516;-82
2023/03/23 04:08:26;;;;;;;2.85;2.20;;;14.00;78.80;;;;;;4887635;29;20068;-82
2023/03/23 04:10:53;;;;;;;2.75;2.20;;;14.00;78.80;;;;;;4888024;29;20032;-82
2023/03/23 04:13:20;;;;;;;3.15;2.33;;;14.00;78.80;;;;;;4919273;29;20466;-82
2023/03/23 04:16:16;;;;;;;2.50;1.80;;;14.00;78.80;;;;;;4893815;29;20071;-83
2023/03/23 04:18:43;;;;;;;2.95;2.35;;;14.00;78.80;;;;;;4903994;29;20036;-82
2023/03/23 04:21:10;;;;;;;2.70;2.00;;;14.00;78.80;;;;;;4903544;29;20039;-83
2023/03/23 04:23:36;;;;;;;2.45;1.90;;;14.00;78.80;;;;;;4887588;29;20035;-82
2023/03/23 04:26:04;;;;;;;2.95;1.95;;;14.00;78.80;;;;;;4903232;29;20028;-82
2023/03/23 04:28:40;;;;;;;2.65;2.00;;;14.00;78.90;;;;;;4905303;29;20434;-82
2023/03/23 04:31:25;;;;;;;2.33;1.88;;;14.00;78.80;;;;;;4905883;29;20070;-83
2023/03/23 04:33:57;;;;;;;3.28;2.10;;;14.00;78.80;;;;;;4888461;29;20076;-83
2023/03/23 04:36:26;;;;;;;3.22;2.30;;;14.10;79.50;;;;;;4873210;29;20068;-82
2023/03/23 04:38:59;;;;;;;3.13;2.30;;;14.10;78.90;;;;;;4888140;29;20032;-83
2023/03/23 04:41:25;;;;;;;3.95;2.35;;;14.10;78.90;;;;;;4903239;29;20036;-83
2023/03/23 04:44:09;;;;;;;2.75;2.00;;;14.00;78.80;;;;;;4892311;29;20099;-83
2023/03/23 04:46:49;;;;;;;3.08;2.38;;;14.10;78.90;;;;;;4903199;29;20425;-80
2023/03/23 04:49:20;;;;;;;2.97;2.22;;;14.10;78.90;;;;;;4903158;29;20191;-82
2023/03/23 04:51:48;;;;;;;3.03;1.95;;;14.10;78.90;;;;;;4887652;29;20071;-84
2023/03/23 04:54:33;;;;;;;2.20;1.98;;;14.10;78.90;;;;;;4905514;29;20496;-84
2023/03/23 04:57:00;;;;;;;2.55;1.90;;;14.00;78.80;;;;;;4887107;29;20051;-82
2023/03/23 04:59:27;;;;;;;2.60;2.10;;;14.10;78.90;;;;;;4887572;29;20032;-83
2023/03/23 05:02:10;;;;;;;2.55;1.95;;;14.10;78.90;;;;;;4902844;29;20036;-83
2023/03/23 05:04:37;;;;;;;2.53;2.10;;;14.10;78.80;;;;;;4903337;29;20514;-83
2023/03/23 05:07:11;;;;;;;3.03;2.20;;;14.10;78.80;;;;;;4888529;29;20032;-83
2023/03/23 05:09:46;;;;;;;2.65;2.03;;;14.10;78.90;;;;;;4887322;29;20036;-86
2023/03/23 05:12:12;;;;;;;2.53;1.80;;;14.10;78.90;;;;;;4886580;29;20458;-82
2023/03/23 05:14:52;;;;;;;2.20;1.85;;;14.10;78.80;;;;;;4889528;29;20079;-83
2023/03/23 05:17:23;;;;;;;2.30;1.70;;;14.10;78.90;;;;;;4903339;29;20044;-82
2023/03/23 05:19:51;;;;;;;2.63;2.00;;;14.10;78.80;;;;;;4887221;29;20028;-83
2023/03/23 05:22:41;;;;;;;2.78;1.90;;;14.10;78.90;;;;;;4890464;29;20032;-85
2023/03/23 05:25:11;;;;;;;3.60;2.38;;;14.10;78.90;;;;;;4886305;29;20052;-83
2023/03/23 05:27:48;;;;;;;2.88;2.00;;;14.10;78.80;;;;;;4874522;29;20343;-85
2023/03/23 05:30:40;;;;;;;3.63;2.20;;;14.10;78.80;;;;;;4901182;29;20127;-85
2023/03/23 05:33:08;;;;;;;3.55;1.85;;;14.10;78.80;;;;;;4903303;29;20032;-87
2023/03/23 05:35:48;;;;;;;3.03;2.03;;;14.10;78.90;;;;;;4889147;29;20482;-88
2023/03/23 05:38:17;;;;;;;2.83;2.20;;;14.10;78.90;;;;;;4887688;29;20043;-84
2023/03/23 05:40:43;;;;;;;2.97;1.90;;;14.10;78.80;;;;;;4902503;29;20070;-86
2023/03/23 05:43:20;;;;;;;2.90;1.98;;;14.10;78.90;;;;;;4888265;29;20036;-85
2023/03/23 05:46:06;;;;;;;;;;;14.10;78.80;;;;;;4905483;29;20052;-87
2023/03/23 05:48:33;;;;;;;2.50;1.58;;;14.10;78.80;;;;;;4902487;29;19947;-84
2023/03/23 05:50:59;;;;;;;2.10;1.65;;;14.10;78.70;;;;;;4886484;29;20373;-83
2023/03/23 05:53:26;;;;;;;2.38;1.55;;;14.10;78.80;;;;;;4901891;29;20032;-86
2023/03/23 05:55:57;;;;;;;3.08;1.70;;;14.10;78.80;;;;;;4901230;29;20040;-82
2023/03/23 05:58:37;;;;;;;3.17;1.70;;;14.10;78.80;;;;;;4904073;29;20032;-82
2023/03/23 06:01:08;;;;;;;1.92;1.60;;;14.10;78.80;;;;;;4871017;29;20036;-84
2023/03/23 06:03:35;;;;;;;3.90;1.98;;;14.10;78.80;;;;;;4901250;29;20051;-83
2023/03/23 06:06:10;;;;;;;2.33;1.48;;;14.10;78.80;;;;;;4901117;29;20034;-82
2023/03/23 06:08:50;;;;;;;2.47;1.77;;;14.10;78.80;;;;;;4900963;29;20047;-85
2023/03/23 06:11:17;;;;;;;3.00;1.55;;;14.10;78.80;;;;;;4917055;29;20032;-83
2023/03/23 06:13:53;;;;;;;1.77;1.40;;;14.10;78.80;;;;;;4902649;29;20028;-85
2023/03/23 06:16:19;;;;;;;1.67;1.52;;;14.20;78.80;;;;;;4901569;29;20032;-84
2023/03/23 06:18:56;;;;;;;2.53;1.52;;;14.20;78.80;;;;;;4903573;29;20039;-86
2023/03/23 06:21:29;;;;;;;2.30;1.70;;;14.20;78.80;;;;;;4886183;29;20478;-85
2023/03/23 06:24:00;;;;;;;2.45;1.50;;;14.10;78.80;;;;;;4872354;29;20096;-84
2023/03/23 06:26:33;;;;;;;2.28;1.45;;;14.20;78.80;;;;;;4885829;29;20043;-84
2023/03/23 06:29:02;;;;;;;2.35;1.60;;;14.20;78.90;;;;;;4901558;29;20043;-83
2023/03/23 06:31:33;;;;;;;3.63;1.40;;;14.10;78.80;;;;;;4886555;29;20028;-84
2023/03/23 06:34:01;;;;;;;2.28;1.42;;;14.20;78.90;;;;;;4901338;29;20547;-84
2023/03/23 06:36:47;;;;;;;2.35;1.75;;;14.20;78.90;;;;;;4890542;29;20028;-83
2023/03/23 06:39:17;;;;;;;2.20;1.40;;;14.20;78.80;;;;;;4886573;29;20127;-83
2023/03/23 06:41:52;;;;;;;1.83;1.38;;;14.20;78.90;;;;;;4887402;29;20126;-84
2023/03/23 06:44:17;;;;;;;3.13;1.30;;;14.20;78.80;;;;;;4885308;29;20126;-84
2023/03/23 06:46:43;;;;;;;1.63;1.52;;;14.20;78.80;;;;;;4885360;29;20051;-83
2023/03/23 06:49:18;;;;;;;1.90;1.30;;;14.20;78.80;;;;;;4900866;29;20042;-85
2023/03/23 06:51:52;;;;;;;2.00;1.50;;;14.20;78.80;;;;;;4887437;29;20036;-87
2023/03/23 06:54:18;;;;;;;3.20;1.40;;;14.20;78.80;;;;;;4885713;29;20028;-85
2023/03/23 06:56:44;;;;;;;2.88;1.50;;;14.30;78.90;;;;;;4885510;29;20064;-86
2023/03/23 06:59:10;;;;;;;2.38;1.55;;;14.20;78.80;;;;;;4885899;29;20457;-87
2023/03/23 07:01:38;;;;;;;2.38;1.77;;;14.20;78.80;;;;;;4885854;29;20020;-84
2023/03/23 07:04:05;;;;;;;2.42;1.73;;;14.30;78.80;;;;;;4885175;29;20501;-86
2023/03/23 07:06:40;;;;;;;2.38;1.35;;;14.30;78.80;;;;;;4886621;29;20032;-91
2023/03/23 07:09:07;;;;;;;2.63;1.58;;;14.30;78.80;;;;;;4886448;29;20047;-91
2023/03/23 07:11:34;;;;;;;1.63;1.40;;;14.30;78.80;;;;;;4871265;29;20032;-90
2023/03/23 07:14:06;;;;;;;2.10;1.45;;;14.30;78.80;;;;;;4886551;29;20056;-84
2023/03/23 07:16:31;;;;;;;1.23;1.13;;;14.30;78.80;;;;;;4901176;29;20032;-86
2023/03/23 07:18:58;;;;;;;2.00;1.38;;;14.30;78.80;;;;;;4854606;29;20378;-86
2023/03/23 07:21:24;;;;;;;1.48;1.30;;;14.30;78.80;;;;;;4885430;29;20035;-85
2023/03/23 07:23:50;;;;;;;1.40;1.30;;;14.30;78.70;;;;;;4900912;29;20164;-86
2023/03/23 07:26:34;;;;;;;2.17;1.50;;;14.30;78.70;;;;;;4887957;29;20036;-86
2023/03/23 07:29:00;;;;;;;2.50;1.25;;;14.30;78.70;;;;;;4901094;29;20449;-86
2023/03/23 07:31:40;;;;;;;1.95;1.40;;;14.40;78.80;;;;;;4888178;29;20024;-85
2023/03/23 07:34:07;;;;;;;2.03;1.42;;;14.40;78.80;;;;;;4902211;29;20054;-85
2023/03/23 07:37:02;;;;;;;2.45;1.35;;;14.40;78.90;;;;;;4908926;29;20037;-86
2023/03/23 07:39:31;;;;;;;3.17;1.33;;;14.40;78.80;;;;;;4889453;29;20032;-85
2023/03/23 07:41:59;;;;;;;2.17;1.45;;;14.30;78.80;;;;;;4889652;29;20024;-85
2023/03/23 07:44:41;;;;;;;2.70;1.83;;;14.40;78.80;;;;;;4890768;29;20052;-86
2023/03/23 07:47:10;;;;;;;2.55;1.38;;;14.40;78.80;;;;;;4904955;29;20039;-88
2023/03/23 07:49:37;;;;;;;3.20;1.38;;;14.40;78.70;;;;;;4873501;29;20036;-86
2023/03/23 07:52:15;;;;;;;3.80;1.38;;;14.40;78.70;;;;;;4906644;29;20032;-86
2023/03/23 07:54:41;;;;;;;1.45;1.20;;;14.40;78.80;;;;;;4904297;29;20028;-85
2023/03/23 07:57:16;;;;;;;2.45;1.65;;;14.40;78.70;;;;;;4905585;29;20036;-86
2023/03/23 07:59:47;;;;;;;1.30;1.10;;;14.40;78.70;;;;;;4889536;29;20483;-85
2023/03/23 08:02:13;;;;;;;2.30;1.20;;;14.40;78.70;;;;;;4904232;29;20088;-85
2023/03/23 08:04:39;;;;;;;1.48;1.00;;;14.40;78.70;;;;;;4920006;29;20032;-85
2023/03/23 08:07:18;;;;;;;1.50;1.30;;;14.40;78.70;;;;;;4920404;29;20046;-86
2023/03/23 08:10:05;;;;;;;2.25;1.40;;;14.50;78.80;;;;;;4906465;29;20112;-86
2023/03/23 08:12:43;;;;;;;1.85;1.30;;;14.50;78.80;;;;;;4890362;29;20394;-87
2023/03/23 08:15:41;;;;;;;1.98;1.58;;;14.50;78.70;;;;;;4907821;29;20098;-86
2023/03/23 08:18:26;;;;;;;1.80;1.27;;;14.50;78.70;;;;;;4907021;29;20050;-86
2023/03/23 08:21:09;;;;;;;2.50;1.25;;;14.50;78.70;;;;;;4919272;29;20092;-85
2023/03/23 08:23:57;;;;;;;1.50;1.20;;;14.50;78.70;;;;;;4899167;29;20060;-85
2023/03/23 08:26:47;;;;;;;2.30;1.67;;;14.50;78.70;;;;;;4914946;29;20058;-85
2023/03/23 08:29:12;;;;;;;1.58;1.30;;;14.50;78.70;;;;;;4903412;29;20119;-86
2023/03/23 08:31:39;;;;;;;2.58;1.50;;;14.50;78.70;;;;;;4888012;29;20024;-84
2023/03/23 08:34:24;;;;;;;1.35;1.10;;;14.50;78.70;;;;;;4906784;29;20111;-85
2023/03/23 08:37:25;;;;;;;2.75;1.33;;;14.50;78.70;;;;;;4888291;29;20393;-84
2023/03/23 08:40:18;;;;;;;1.30;1.13;;;14.60;78.70;;;;;;4879104;29;20039;-86
2023/03/23 08:43:10;;;;;;;;;;;14.60;78.70;;;;;;4894140;29;20123;-85
2023/03/23 08:45:59;;;;;;;1.83;1.30;;;14.50;78.60;;;;;;4900604;29;19923;-85
2023/03/23 08:48:55;;;;;;;1.77;1.20;;;14.60;78.60;;;;;;4903495;29;20072;-85
2023/03/23 08:51:46;;;;;;;2.38;1.30;;;14.50;78.60;;;;;;4906761;29;20036;-85
2023/03/23 08:54:26;;;;;;;1.83;1.08;;;14.60;78.70;;;;;;4905525;29;20127;-85
2023/03/23 08:57:18;;;;;;;1.88;1.20;;;14.60;78.80;;;;;;4892194;29;20048;-84
2023/03/23 09:00:17;;;;;;;2.63;1.20;;;14.60;78.80;;;;;;4877728;29;20048;-84
2023/03/23 09:03:02;;;;;;;1.83;1.23;;;14.50;78.70;;;;;;4920230;29;20052;-83
2023/03/23 09:05:46;;;;;;;1.40;1.20;;;14.60;78.80;;;;;;4903096;29;20054;-85
2023/03/23 09:08:31;;;;;;;1.40;1.30;;;14.60;78.80;;;;;;4889606;29;20068;-85
2023/03/23 09:11:02;;;;;;;1.33;1.20;;;14.60;78.80;;;;;;4902604;29;20028;-85
2023/03/23 09:13:29;;;;;;;1.38;1.15;;;14.60;78.90;;;;;;4919546;29;20030;-85
2023/03/23 09:15:55;;;;;;;2.20;1.20;;;14.70;78.90;;;;;;4887778;29;20032;-85
2023/03/23 09:18:21;;;;;;;2.67;1.30;;;14.60;78.90;;;;;;4903393;29;20036;-86
2023/03/23 09:20:50;;;;;;;1.75;1.40;;;14.60;78.80;;;;;;4887390;29;20034;-84
2023/03/23 09:23:16;;;;;;;1.50;1.35;;;14.70;78.90;;;;;;4902734;29;20382;-86
2023/03/23 09:25:42;;;;;;;1.58;1.17;;;14.60;78.80;;;;;;4887359;29;20500;-87
2023/03/23 09:28:09;;;;;;;2.03;1.38;;;14.70;78.90;;;;;;4903104;29;20141;-85
2023/03/23 09:30:38;;;;;;;2.50;1.30;;;14.70;78.80;;;;;;4918340;29;20099;-84
2023/03/23 09:33:05;;;;;;;1.25;1.13;;;14.70;78.90;;;;;;4918954;29;20035;-84
2023/03/23 09:35:34;;;;;;;2.08;1.30;;;14.70;78.80;;;;;;4902599;29;20115;-86
2023/03/23 09:38:01;;;;;;;2.15;1.10;;;14.70;78.80;;;;;;4902124;29;20041;-84
2023/03/23 09:40:30;;;;;;;1.45;1.05;;;14.70;78.80;;;;;;4901908;29;20075;-84
2023/03/23 09:43:05;;;;;;;1.75;1.10;;;14.80;78.90;;;;;;4902039;29;20036;-85
2023/03/23 09:45:36;;;;;;;1.02;1.00;;;14.80;78.80;;;;;;4901861;29;20482;-85
2023/03/23 09:48:27;;;;;;;1.75;1.10;;;14.80;78.80;;;;;;4902640;29;20454;-84
2023/03/23 09:51:20;;;;;;;1.40;1.30;;;14.80;78.90;;;;;;4918636;29;20024;-84
2023/03/23 09:54:05;;;;;;;1.73;1.20;;;14.80;78.80;;;;;;4891892;29;20103;-85
2023/03/23 09:56:32;;;;;;;;;;;14.80;78.80;;;;;;4901359;29;20450;-85
2023/03/23 09:59:01;;;;;;;0.98;0.95;;;14.90;78.70;;;;;;4918416;29;19918;-86
2023/03/23 10:01:53;;;;;;;2.00;1.10;;;14.90;78.70;;;;;;4901741;29;20033;-85
2023/03/23 10:04:28;;;;;;;1.52;1.17;;;14.90;78.80;;;;;;4902182;29;20087;-87
2023/03/23 10:07:11;;;;;;;1.23;0.93;;;14.90;78.70;;;;;;4902305;29;20056;-88
2023/03/23 10:09:38;;;;;;;1.48;1.20;;;15.00;78.80;;;;;;4902392;29;20446;-85
2023/03/23 10:12:09;;;;;;;1.45;1.25;;;15.00;78.70;;;;;;4886171;29;20046;-87
2023/03/23 10:14:41;;;;;;;0.95;0.85;;;15.00;78.70;;;;;;4902141;29;20048;-88
2023/03/23 10:17:24;;;;;;;1.35;1.10;;;15.10;78.70;;;;;;4918514;29;20042;-88
2023/03/23 10:19:52;;;;;;;1.60;1.30;;;15.10;78.70;;;;;;4902131;29;20032;-88
2023/03/23 10:22:33;;;;;;;2.67;1.38;;;15.20;78.60;;;;;;4901692;29;20024;-90
2023/03/23 10:25:02;;;;;;;1.35;1.00;;;15.20;78.60;;;;;;4918340;29;20032;-88
2023/03/23 10:27:44;;;;;;;2.55;1.35;;;15.30;78.50;;;;;;4902261;29;20032;-88
2023/03/23 10:30:17;;;;;;;1.02;0.90;;;15.40;78.50;;;;;;4902476;29;20075;-86
2023/03/23 10:32:51;;;;;;;2.13;1.10;;;15.40;78.40;;;;;;4918737;29;20036;-88
2023/03/23 10:35:43;;;;;;;1.55;1.08;;;15.50;78.30;;;;;;4918210;29;20028;-88
2023/03/23 10:38:18;;;;;;;2.00;1.10;;;15.50;78.30;;;;;;4902007;29;20036;-88
2023/03/23 10:40:55;;;;;;;1.95;1.20;;;15.60;78.30;;;;;;4901797;29;20111;-87
2023/03/23 10:43:21;;;;;;;2.50;1.20;;;15.70;78.40;;;;;;4901912;29;20032;-88
2023/03/23 10:45:56;;;;;;;2.40;1.33;;;15.70;78.30;;;;;;4885898;29;20056;-86
2023/03/23 10:48:36;;;;;;;1.17;1.00;;;15.70;78.40;;;;;;4886269;29;20040;-88
2023/03/23 10:51:06;;;;;;;2.30;1.40;;;15.80;78.40;;;;;;4901525;29;20040;-86
2023/03/23 10:53:50;;;;;;;1.88;1.17;;;15.90;78.40;;;;;;4901779;29;20111;-87
2023/03/23 10:56:24;;;;;;;3.37;1.40;;;15.90;78.30;;;;;;4901059;29;20032;-87
2023/03/23 10:58:51;;;;;;;2.20;1.10;;;16.00;79.00;;;;;;4902089;29;20327;-87
2023/03/23 11:01:19;;;;;;;2.65;1.30;;;16.00;78.30;;;;;;4901406;29;20036;-86
2023/03/23 11:03:48;;;;;;;2.20;1.35;;;16.10;78.40;;;;;;4901822;29;20087;-88
2023/03/23 11:06:45;;;;;;;2.25;1.13;;;16.10;78.30;;;;;;4917870;29;20020;-85
2023/03/23 11:09:17;;;;;;;2.90;1.38;;;16.20;78.50;;;;;;4916556;29;20063;-88
2023/03/23 11:11:52;;;;;;;2.15;1.30;;;16.20;78.30;;;;;;4901322;29;20038;-87
2023/03/23 11:14:27;;;;;;;2.13;1.15;;;16.30;78.40;;;;;;4885582;29;20127;-87
2023/03/23 11:17:06;;;;;;;3.20;1.40;;;16.40;78.40;;;;;;4901303;29;20036;-87
2023/03/23 11:19:37;;;;;;;1.67;1.27;;;16.40;78.50;;;;;;4901308;29;20055;-87
2023/03/23 11:22:04;;;;;;;2.63;1.40;;;16.40;78.50;;;;;;4901191;29;20035;-88
2023/03/23 11:24:33;;;;;;;2.47;1.40;;;16.50;78.50;;;;;;4917021;29;20047;-87
2023/03/23 11:26:59;;;;;;;3.13;1.38;;;16.50;78.60;;;;;;4901139;29;20036;-89
2023/03/23 11:29:28;;;;;;;2.30;1.20;;;16.60;78.60;;;;;;4901343;29;20377;-87
2023/03/23 11:32:10;;;;;;;2.28;1.40;;;16.60;78.60;;;;;;4900835;29;20032;-86
2023/03/23 11:34:44;;;;;;;3.85;1.52;;;16.70;78.70;;;;;;4901871;29;20168;-87
2023/03/23 11:37:32;;;;;;;2.95;1.50;;;16.70;78.70;;;;;;4901212;29;20039;-88
2023/03/23 11:40:06;;;;;;;3.10;1.45;;;16.80;78.70;;;;;;4900883;29;20103;-87
2023/03/23 11:42:32;;;;;;;1.97;1.30;;;16.80;78.70;;;;;;4901365;29;20032;-86
2023/03/23 11:45:17;;;;;;;2.58;1.50;;;16.90;78.70;;;;;;4900891;29;20135;-87
2023/03/23 11:47:51;;;;;;;;;;;16.90;78.80;;;;;;4901664;29;20112;-86
2023/03/23 11:50:27;;;;;;;2.10;1.33;;;16.90;78.50;;;;;;4901006;29;19986;-90
2023/03/23 11:53:27;;;;;;;1.48;1.20;;;17.00;78.60;;;;;;4900732;29;20024;-84
2023/03/23 11:56:21;;;;;;;1.85;1.30;;;17.00;78.70;;;;;;4900273;29;20123;-87
2023/03/23 11:58:47;;;;;;;3.10;1.30;;;17.00;78.70;;;;;;4900878;29;20036;-84
2023/03/23 12:01:44;;;;;;;2.30;1.40;;;17.10;78.70;;;;;;4900780;29;20028;-86
2023/03/23 12:04:24;;;;;;;2.03;1.38;;;17.10;78.80;;;;;;4900788;29;20035;-86
2023/03/23 12:07:18;;;;;;;3.17;1.40;;;17.10;78.70;;;;;;4901001;29;20043;-84
2023/03/23 12:10:22;;;;;;;2.60;1.40;;;17.10;78.80;;;;;;4917220;29;20028;-85
2023/03/23 12:13:00;;;;;;;2.28;1.50;;;17.20;78.90;;;;;;4897909;29;20032;-84
2023/03/23 12:15:34;;;;;;;3.10;1.45;;;17.20;78.80;;;;;;4901082;29;20040;-85
2023/03/23 12:18:14;;;;;;;2.42;1.40;;;17.20;78.70;;;;;;4917590;29;20052;-84
2023/03/23 12:21:07;;;;;;;1.98;1.40;;;17.20;78.70;;;;;;4887053;29;20056;-85
2023/03/23 12:23:38;;;;;;;2.88;1.60;;;17.20;78.70;;;;;;4904591;29;20036;-85
2023/03/23 12:26:38;;;;;;;1.70;1.40;;;17.20;78.70;;;;;;4904135;29;20043;-85
2023/03/23 12:29:13;;;;;;;2.15;1.38;;;17.30;78.90;;;;;;4878296;29;20408;-85
2023/03/23 12:31:45;;;;;;;1.40;1.30;;;17.30;78.80;;;;;;4904407;29;20039;-85
2023/03/23 12:34:17;;;;;;;2.15;1.45;;;17.30;78.90;;;;;;4920586;29;20028;-85
2023/03/23 12:37:28;;;;;;;1.23;1.13;;;17.30;79.00;;;;;;4903664;29;20492;-85
2023/03/23 12:40:22;;;;;;;2.20;1.65;;;17.30;79.00;;;;;;4895553;29;20430;-85
2023/03/23 12:43:20;;;;;;;2.08;1.40;;;17.30;79.00;;;;;;4903884;29;20434;-84
2023/03/23 12:46:05;;;;;;;2.78;1.83;;;17.30;79.00;;;;;;4903671;29;20048;-86
2023/03/23 12:48:44;;;;;;;1.75;1.30;;;17.30;79.10;;;;;;4903577;29;20096;-85
2023/03/23 12:51:16;;;;;;;1.75;1.25;;;17.40;79.10;;;;;;4919913;29;20390;-85
2023/03/23 12:54:02;;;;;;;2.58;1.50;;;17.40;79.10;;;;;;4903569;29;20648;-84
2023/03/23 12:56:41;;;;;;;2.20;1.60;;;17.40;79.20;;;;;;4904012;29;20116;-85
2023/03/23 12:59:22;;;;;;;1.88;1.48;;;17.40;79.10;;;;;;4903416;29;20024;-84
2023/03/23 13:01:56;;;;;;;2.17;1.50;;;17.40;79.10;;;;;;4903623;29;20394;-84
2023/03/23 13:04:37;;;;;;;2.60;1.42;;;17.40;79.10;;;;;;4918821;29;20063;-85
2023/03/23 13:07:09;;;;;;;3.03;1.48;;;17.50;79.10;;;;;;4919880;29;20127;-84
2023/03/23 13:10:06;;;;;;;3.08;1.77;;;17.40;79.00;;;;;;4903564;29;20032;-84
2023/03/23 13:12:34;;;;;;;2.10;1.30;;;17.50;79.10;;;;;;4902942;29;20123;-84
2023/03/23 13:15:23;;;;;;;2.50;1.60;;;17.40;78.90;;;;;;4903085;29;20066;-85
2023/03/23 13:17:58;;;;;;;3.28;1.60;;;17.50;79.00;;;;;;4903237;29;20058;-84
2023/03/23 13:20:47;;;;;;;2.58;1.63;;;17.50;79.00;;;;;;4903671;29;20042;-85
2023/03/23 13:23:27;;;;;;;1.92;1.45;;;17.40;79.00;;;;;;4902992;29;20481;-84
2023/03/23 13:26:11;;;;;;;1.50;1.30;;;17.40;79.00;;;;;;4903047;29;20483;-84
2023/03/23 13:28:46;;;;;;;2.90;1.50;;;17.40;79.00;;;;;;4918851;29;20119;-84